This is the latest recevied weather packets stored in our database for station/object PY2CQC-13. If no packets are shown the sender has not sent any weather packets the latest 10 day(s).
| Time | Temp. | Humidity | Pressure | Rain* | Wind** | Luminosity | Snow |
|---|---|---|---|---|---|---|---|
| 1777685525 | 23.89° C | 70% | 1034.9 hPa | - | - | - | - |
| 1777683724 | 23.89° C | 71% | 1035.2 hPa | - | - | - | - |
| 1777681924 | 23.89° C | 72% | 1035.3 hPa | - | - | - | - |
| 1777680125 | 23.89° C | 71% | 1035.3 hPa | - | - | - | - |
| 1777678325 | 25° C | 70% | 1035.1 hPa | - | - | - | - |
| 1777676525 | 24.44° C | 70% | 1034.8 hPa | - | - | - | - |
| 1777674725 | 25° C | 69% | 1034.6 hPa | - | - | - | - |
| 1777672925 | 25.56° C | 65% | 1034.4 hPa | - | - | - | - |
| 1777671124 | 26.11° C | 64% | 1034.2 hPa | - | - | - | - |
| 1777669324 | 26.11° C | 63% | 1034.2 hPa | - | - | - | - |
| 1777667525 | 26.67° C | 61% | 1034 hPa | - | - | - | - |
| 1777665725 | 27.22° C | 58% | 1034 hPa | - | - | - | - |
| 1777663925 | 27.22° C | 59% | 1033.9 hPa | - | - | - | - |
| 1777662125 | 27.78° C | 57% | 1033.9 hPa | - | - | - | - |
| 1777660325 | 27.22° C | 57% | 1033.8 hPa | - | - | - | - |
| 1777658526 | 27.78° C | 57% | 1034.2 hPa | - | - | - | - |
| 1777656724 | 28.33° C | 55% | 1034.4 hPa | - | - | - | - |
| 1777654925 | 27.78° C | 56% | 1034.8 hPa | - | - | - | - |
| 1777653126 | 27.22° C | 58% | 1035.2 hPa | - | - | - | - |
| 1777651325 | 27.78° C | 57% | 1035.6 hPa | - | - | - | - |
| 1777649525 | 27.78° C | 59% | 1036.1 hPa | - | - | - | - |
| 1777647725 | 27.22° C | 60% | 1036.6 hPa | - | - | - | - |
| 1777645925 | 26.11° C | 64% | 1037.1 hPa | - | - | - | - |
| 1777644125 | 25° C | 66% | 1037.5 hPa | - | - | - | - |
| 1777642324 | 23.89° C | 68% | 1038 hPa | - | - | - | - |
* Rain since midnight (hover to see other rain measurements)
** Current wind speed in m/s (hover to see current wind gust speed)